Time;durP1;ratioP1;P1;durP2;ratioP2;P2;SDS_P1;SDS_P2;PMS_P1;PMS_P2;Temp;Humidity;BMP_temperature;BMP_pressure;BME280_temperature;BME280_humidity;BME280_pressure;Samples;Min_cycle;Max_cycle;Signal;HPM_P1;HPM_P2
2022/01/04 00:02:20;;;;;;;1.27;1.15;;;;;;;;;;5123421;27;24428;-57
2022/01/04 00:04:45;;;;;;;0.90;0.80;;;;;;;;;;5121635;27;24432;-56
2022/01/04 00:07:10;;;;;;;1.30;1.10;;;;;;;;;;5122401;27;24461;-56
2022/01/04 00:09:40;;;;;;;1.67;1.37;;;;;;;;;;5119134;27;24444;-56
2022/01/04 00:14:50;;;;;;;1.30;1.20;;;;;;;;;;5122159;27;24427;-56
2022/01/04 00:17:15;;;;;;;1.47;1.10;;;;;;;;;;5122798;27;24427;-56
2022/01/04 00:19:41;;;;;;;1.20;1.10;;;;;;;;;;5121132;27;24424;-56
2022/01/04 00:22:08;;;;;;;1.48;1.10;;;;;;;;;;5099390;27;24515;-57
2022/01/04 00:24:33;;;;;;;1.60;1.20;;;;;;;;;;5117878;27;24413;-56
2022/01/04 00:26:58;;;;;;;1.65;1.20;;;;;;;;;;5120105;27;24485;-57
2022/01/04 00:29:23;;;;;;;1.77;1.40;;;;;;;;;;5121224;27;24437;-55
2022/01/04 00:31:48;;;;;;;1.17;1.10;;;;;;;;;;5119278;27;24478;-55
2022/01/04 00:34:13;;;;;;;1.20;1.10;;;;;;;;;;5121254;27;24469;-57
2022/01/04 00:36:39;;;;;;;1.33;1.23;;;;;;;;;;5123163;28;24445;-55
2022/01/04 00:39:04;;;;;;;1.10;0.90;;;;;;;;;;5121784;28;25262;-57
2022/01/04 00:41:29;;;;;;;1.30;1.10;;;;;;;;;;5119725;28;24462;-59
2022/01/04 00:43:54;;;;;;;1.05;0.95;;;;;;;;;;5119723;28;24496;-54
2022/01/04 00:46:19;;;;;;;1.10;1.00;;;;;;;;;;5121199;28;24421;-56
2022/01/04 00:51:29;;;;;;;1.80;1.38;;;;;;;;;;5111503;28;24983;-54
2022/01/04 00:53:55;;;;;;;1.30;1.20;;;;;;;;;;5118451;28;24510;-56
2022/01/04 00:56:20;;;;;;;1.20;1.10;;;;;;;;;;5123552;28;24452;-56
2022/01/04 00:58:45;;;;;;;1.20;1.10;;;;;;;;;;5121215;28;24554;-56
2022/01/04 01:01:10;;;;;;;1.42;1.23;;;;;;;;;;5118695;28;24409;-56
2022/01/04 01:03:35;;;;;;;1.10;0.93;;;;;;;;;;5116862;28;24779;-56
2022/01/04 01:06:00;;;;;;;1.40;1.30;;;;;;;;;;5118731;28;24494;-56
2022/01/04 01:08:26;;;;;;;1.30;1.20;;;;;;;;;;5121775;28;24428;-56
2022/01/04 01:10:51;;;;;;;1.10;1.00;;;;;;;;;;5114660;28;24417;-56
2022/01/04 01:13:16;;;;;;;1.20;1.10;;;;;;;;;;5113252;28;24969;-55
2022/01/04 01:15:44;;;;;;;0.90;0.90;;;;;;;;;;5119299;28;24463;-56
2022/01/04 01:18:10;;;;;;;1.20;1.02;;;;;;;;;;5110644;28;24405;-55
2022/01/04 01:20:35;;;;;;;1.67;1.20;;;;;;;;;;5120775;28;24424;-57
2022/01/04 01:23:01;;;;;;;1.47;0.90;;;;;;;;;;5118701;28;24459;-56
2022/01/04 01:25:26;;;;;;;1.20;1.10;;;;;;;;;;5115031;28;24532;-56
2022/01/04 01:27:51;;;;;;;1.20;1.10;;;;;;;;;;5118633;28;24896;-56
2022/01/04 01:30:17;;;;;;;1.25;1.15;;;;;;;;;;5120625;28;25071;-55
2022/01/04 01:32:42;;;;;;;0.87;0.80;;;;;;;;;;5120141;28;24972;-54
2022/01/04 01:35:07;;;;;;;1.30;1.20;;;;;;;;;;5122831;28;24405;-55
2022/01/04 01:37:34;;;;;;;1.20;1.10;;;;;;;;;;5122877;28;24806;-55
2022/01/04 01:39:59;;;;;;;1.05;0.95;;;;;;;;;;5118470;28;24411;-56
2022/01/04 01:42:24;;;;;;;1.33;0.93;;;;;;;;;;5116730;27;24409;-57
2022/01/04 01:44:50;;;;;;;1.20;0.93;;;;;;;;;;5124693;27;24458;-56
2022/01/04 01:47:16;;;;;;;0.93;0.90;;;;;;;;;;5127054;27;24493;-56
2022/01/04 01:49:41;;;;;;;1.60;1.10;;;;;;;;;;5122025;27;24829;-55
2022/01/04 01:52:06;;;;;;;1.55;1.00;;;;;;;;;;5120805;27;24433;-55
2022/01/04 01:54:31;;;;;;;1.05;0.95;;;;;;;;;;5126165;27;24801;-54
2022/01/04 01:56:56;;;;;;;0.90;0.90;;;;;;;;;;5124085;27;24443;-55
2022/01/04 01:59:22;;;;;;;1.20;1.10;;;;;;;;;;5122901;27;24413;-55
2022/01/04 02:01:47;;;;;;;1.10;1.00;;;;;;;;;;5122048;27;24445;-55
2022/01/04 02:04:12;;;;;;;1.40;1.10;;;;;;;;;;5123426;27;24444;-55
2022/01/04 02:06:37;;;;;;;1.70;1.00;;;;;;;;;;5126244;27;24414;-55
2022/01/04 02:09:03;;;;;;;1.10;1.00;;;;;;;;;;5123985;27;24419;-55
2022/01/04 02:11:29;;;;;;;1.40;1.23;;;;;;;;;;5122359;27;24800;-57
2022/01/04 02:13:54;;;;;;;1.25;1.10;;;;;;;;;;5122619;27;25010;-57
2022/01/04 02:16:20;;;;;;;1.30;1.10;;;;;;;;;;5125476;27;25055;-55
2022/01/04 02:18:45;;;;;;;1.67;1.13;;;;;;;;;;5125182;27;24427;-54
2022/01/04 02:21:10;;;;;;;1.10;1.00;;;;;;;;;;5122044;27;24408;-56
2022/01/04 02:23:35;;;;;;;1.25;1.10;;;;;;;;;;5117986;27;24736;-56
2022/01/04 02:26:02;;;;;;;1.95;1.17;;;;;;;;;;5123261;27;24419;-56
2022/01/04 02:28:28;;;;;;;2.10;1.00;;;;;;;;;;5125952;27;25039;-56
2022/01/04 02:30:53;;;;;;;1.80;0.98;;;;;;;;;;5121949;27;24421;-56
2022/01/04 02:33:18;;;;;;;1.63;1.20;;;;;;;;;;5121630;27;24586;-54
2022/01/04 02:35:43;;;;;;;1.27;1.17;;;;;;;;;;5117285;27;24441;-55
2022/01/04 02:38:10;;;;;;;1.02;0.90;;;;;;;;;;5125576;27;24947;-55
2022/01/04 02:40:35;;;;;;;1.27;0.90;;;;;;;;;;5123544;27;24942;-56
2022/01/04 02:43:00;;;;;;;1.27;0.87;;;;;;;;;;5115940;27;24421;-56
2022/01/04 02:45:25;;;;;;;1.30;1.00;;;;;;;;;;5112580;27;24565;-56
2022/01/04 02:47:50;;;;;;;1.47;1.00;;;;;;;;;;5121516;27;24401;-55
2022/01/04 02:50:16;;;;;;;1.80;0.90;;;;;;;;;;5125231;27;24416;-56
2022/01/04 02:52:41;;;;;;;1.50;0.90;;;;;;;;;;5125367;27;25072;-56
2022/01/04 02:55:08;;;;;;;1.00;0.90;;;;;;;;;;5120100;27;24409;-55
2022/01/04 02:57:34;;;;;;;0.90;0.80;;;;;;;;;;5120518;27;24425;-56
2022/01/04 02:59:59;;;;;;;0.70;0.70;;;;;;;;;;5121471;27;24794;-55
2022/01/04 03:02:25;;;;;;;1.20;0.90;;;;;;;;;;5125481;27;24410;-55
2022/01/04 03:04:50;;;;;;;1.00;0.90;;;;;;;;;;5111767;27;24433;-55
2022/01/04 03:07:15;;;;;;;1.40;0.80;;;;;;;;;;5123093;27;24421;-55
2022/01/04 03:09:40;;;;;;;0.80;0.80;;;;;;;;;;5120968;27;24992;-56
2022/01/04 03:12:06;;;;;;;0.90;0.70;;;;;;;;;;5123998;27;24832;-54
2022/01/04 03:14:31;;;;;;;0.90;0.90;;;;;;;;;;5124573;27;24423;-55
2022/01/04 03:16:56;;;;;;;1.27;0.80;;;;;;;;;;5121988;27;24464;-55
2022/01/04 03:19:22;;;;;;;1.70;1.10;;;;;;;;;;5119893;27;24504;-55
2022/01/04 03:21:47;;;;;;;1.00;0.80;;;;;;;;;;5110346;27;24536;-55
2022/01/04 03:24:15;;;;;;;0.90;0.70;;;;;;;;;;5123032;27;24949;-54
2022/01/04 03:26:41;;;;;;;0.75;0.70;;;;;;;;;;5124268;27;24493;-56
2022/01/04 03:29:07;;;;;;;1.13;0.77;;;;;;;;;;5120943;27;24981;-55
2022/01/04 03:31:32;;;;;;;0.80;0.60;;;;;;;;;;5122579;27;24775;-55
2022/01/04 03:33:57;;;;;;;0.80;0.70;;;;;;;;;;5122398;27;24415;-54
2022/01/04 03:36:24;;;;;;;1.30;0.90;;;;;;;;;;5124164;27;25066;-54
2022/01/04 03:38:49;;;;;;;1.70;0.90;;;;;;;;;;5120601;27;24417;-55
2022/01/04 03:41:15;;;;;;;1.63;0.90;;;;;;;;;;5107996;27;24485;-55
2022/01/04 03:43:40;;;;;;;1.00;0.90;;;;;;;;;;5121147;27;25034;-55
2022/01/04 03:46:06;;;;;;;0.73;0.73;;;;;;;;;;5124022;27;24432;-54
2022/01/04 03:48:31;;;;;;;0.90;0.70;;;;;;;;;;5123182;27;24420;-54
2022/01/04 03:50:56;;;;;;;1.10;0.90;;;;;;;;;;5120774;27;24422;-54
2022/01/04 03:53:21;;;;;;;0.90;0.80;;;;;;;;;;5122657;27;24488;-55
2022/01/04 03:55:46;;;;;;;1.00;0.90;;;;;;;;;;5120001;27;24461;-55
2022/01/04 03:58:12;;;;;;;1.50;0.90;;;;;;;;;;5124743;27;24446;-55
2022/01/04 04:00:37;;;;;;;1.20;1.10;;;;;;;;;;5122151;27;24409;-56
2022/01/04 04:03:02;;;;;;;1.40;1.10;;;;;;;;;;5113693;27;24432;-55
2022/01/04 04:05:27;;;;;;;1.97;1.00;;;;;;;;;;5112436;27;24417;-55
2022/01/04 04:07:52;;;;;;;1.52;1.15;;;;;;;;;;5117280;27;24445;-55
2022/01/04 04:10:17;;;;;;;1.63;1.17;;;;;;;;;;5123387;27;24413;-55
2022/01/04 04:12:42;;;;;;;1.50;1.40;;;;;;;;;;5120934;27;24458;-55
2022/01/04 04:15:09;;;;;;;1.60;1.50;;;;;;;;;;5119669;27;25057;-56
2022/01/04 04:17:34;;;;;;;1.67;1.58;;;;;;;;;;5123045;27;24432;-55
2022/01/04 04:19:59;;;;;;;1.80;1.50;;;;;;;;;;5121744;27;24473;-55
2022/01/04 04:22:25;;;;;;;1.60;1.40;;;;;;;;;;5119396;27;24440;-54
2022/01/04 04:24:50;;;;;;;1.50;1.40;;;;;;;;;;5120535;27;24767;-56
2022/01/04 04:27:15;;;;;;;1.40;1.30;;;;;;;;;;5121913;27;24417;-55
2022/01/04 04:29:40;;;;;;;1.30;1.00;;;;;;;;;;5122938;27;24409;-55
2022/01/04 04:32:06;;;;;;;1.10;1.00;;;;;;;;;;5118147;27;24466;-56
2022/01/04 04:34:31;;;;;;;1.55;1.17;;;;;;;;;;5118430;27;24433;-55
2022/01/04 04:36:56;;;;;;;1.50;1.40;;;;;;;;;;5121057;27;24445;-55
2022/01/04 04:39:21;;;;;;;1.20;1.10;;;;;;;;;;5122488;28;24412;-55
2022/01/04 04:41:46;;;;;;;1.90;1.50;;;;;;;;;;5121420;28;24477;-54
2022/01/04 04:44:11;;;;;;;1.33;1.30;;;;;;;;;;5121366;28;24940;-55
2022/01/04 04:46:37;;;;;;;2.10;1.50;;;;;;;;;;5123028;28;24444;-55
2022/01/04 04:49:04;;;;;;;1.53;1.43;;;;;;;;;;5118187;28;24452;-55
2022/01/04 04:51:30;;;;;;;1.88;1.30;;;;;;;;;;5118248;28;24934;-55
2022/01/04 04:53:55;;;;;;;2.30;1.48;;;;;;;;;;5113532;28;24428;-55
2022/01/04 04:56:20;;;;;;;2.20;2.00;;;;;;;;;;5121940;28;25085;-55
2022/01/04 04:58:45;;;;;;;2.83;2.20;;;;;;;;;;5122760;28;24448;-54
2022/01/04 05:01:10;;;;;;;3.27;2.70;;;;;;;;;;5121523;28;24416;-55
2022/01/04 05:03:35;;;;;;;2.83;2.45;;;;;;;;;;5122418;28;24420;-55
2022/01/04 05:06:01;;;;;;;2.70;2.00;;;;;;;;;;5121169;28;24417;-55
2022/01/04 05:08:26;;;;;;;2.10;1.90;;;;;;;;;;5121422;28;24766;-55
2022/01/04 05:10:51;;;;;;;1.50;1.40;;;;;;;;;;5112679;28;24481;-56
2022/01/04 05:13:17;;;;;;;1.30;1.20;;;;;;;;;;5110232;28;24955;-55
2022/01/04 05:15:42;;;;;;;1.30;1.20;;;;;;;;;;5118044;28;26293;-55
2022/01/04 05:18:10;;;;;;;1.33;1.10;;;;;;;;;;5121858;27;24412;-55
2022/01/04 05:20:35;;;;;;;1.70;1.60;;;;;;;;;;5125119;27;24420;-56
2022/01/04 05:23:00;;;;;;;1.80;1.70;;;;;;;;;;5112182;27;24421;-55
2022/01/04 05:25:25;;;;;;;2.25;1.65;;;;;;;;;;5123774;27;24496;-55
2022/01/04 05:27:51;;;;;;;1.83;1.70;;;;;;;;;;5125760;27;24926;-55
2022/01/04 05:30:16;;;;;;;1.50;1.40;;;;;;;;;;5118119;27;24557;-55
2022/01/04 05:32:41;;;;;;;2.30;2.08;;;;;;;;;;5119059;27;24425;-55
2022/01/04 05:35:06;;;;;;;2.20;2.00;;;;;;;;;;5120348;27;25395;-56
2022/01/04 05:37:32;;;;;;;2.50;2.30;;;;;;;;;;5115550;27;24550;-60
2022/01/04 05:39:57;;;;;;;3.33;2.90;;;;;;;;;;5110910;27;24502;-55
2022/01/04 05:42:22;;;;;;;3.40;3.10;;;;;;;;;;5118917;27;24973;-55
2022/01/04 05:44:47;;;;;;;2.90;2.60;;;;;;;;;;5117490;27;24741;-55
2022/01/04 05:47:12;;;;;;;2.50;2.30;;;;;;;;;;5121668;27;25319;-55
2022/01/04 05:49:37;;;;;;;2.87;2.60;;;;;;;;;;5118556;27;24993;-56
2022/01/04 05:52:04;;;;;;;2.50;2.30;;;;;;;;;;5120672;27;24493;-56
2022/01/04 05:54:29;;;;;;;2.92;2.63;;;;;;;;;;5122257;27;24431;-53
2022/01/04 05:56:54;;;;;;;3.13;2.83;;;;;;;;;;5098668;27;24425;-55
2022/01/04 05:59:19;;;;;;;3.50;3.10;;;;;;;;;;5119567;27;24413;-55
2022/01/04 06:01:44;;;;;;;3.40;3.10;;;;;;;;;;5119401;27;24397;-55
2022/01/04 06:04:11;;;;;;;3.40;3.10;;;;;;;;;;5121634;27;24453;-55
2022/01/04 06:06:39;;;;;;;3.50;3.20;;;;;;;;;;5122461;27;24413;-55
2022/01/04 06:09:04;;;;;;;3.40;3.10;;;;;;;;;;5120458;27;24420;-55
2022/01/04 06:11:55;;;;;;;4.80;3.40;;;;;;;;;;5118064;27;24417;-55
2022/01/04 06:17:02;;;;;;;5.60;4.97;;;;;;;;;;5116072;27;24478;-55
2022/01/04 06:19:27;;;;;;;5.05;4.55;;;;;;;;;;5115102;27;24402;-54
2022/01/04 06:21:52;;;;;;;5.50;4.93;;;;;;;;;;5114001;27;24417;-54
2022/01/04 06:24:17;;;;;;;4.70;4.30;;;;;;;;;;5124159;27;25023;-58
2022/01/04 06:26:43;;;;;;;6.40;5.55;;;;;;;;;;5120662;27;24401;-55
2022/01/04 06:29:09;;;;;;;5.67;4.50;;;;;;;;;;5105111;28;24478;-54
2022/01/04 06:31:34;;;;;;;5.63;5.13;;;;;;;;;;5101391;28;24899;-55
2022/01/04 06:33:59;;;;;;;5.90;5.40;;;;;;;;;;5099203;28;24397;-55
2022/01/04 06:36:25;;;;;;;6.60;5.80;;;;;;;;;;5112849;27;24467;-54
2022/01/04 06:38:50;;;;;;;6.20;5.60;;;;;;;;;;5123470;27;24425;-55
2022/01/04 06:41:16;;;;;;;6.87;5.67;;;;;;;;;;5123149;27;24377;-55
2022/01/04 06:43:41;;;;;;;5.40;4.90;;;;;;;;;;5121712;27;24408;-55
2022/01/04 06:46:06;;;;;;;6.57;5.88;;;;;;;;;;5119069;27;24429;-54
2022/01/04 06:48:31;;;;;;;7.83;6.10;;;;;;;;;;5124706;27;24426;-56
2022/01/04 06:50:57;;;;;;;7.55;6.75;;;;;;;;;;5123500;27;24454;-55
2022/01/04 06:53:22;;;;;;;6.37;5.70;;;;;;;;;;5121437;27;24716;-54
2022/01/04 06:55:50;;;;;;;7.30;6.60;;;;;;;;;;5119016;27;24793;-55
2022/01/04 06:58:15;;;;;;;6.60;6.00;;;;;;;;;;5121518;27;24434;-54
2022/01/04 07:00:40;;;;;;;6.90;6.30;;;;;;;;;;5119565;27;24389;-55
2022/01/04 07:03:05;;;;;;;8.63;7.10;;;;;;;;;;5124263;27;24552;-55
2022/01/04 07:05:30;;;;;;;6.10;5.38;;;;;;;;;;5114593;27;24409;-54
2022/01/04 07:07:56;;;;;;;6.00;5.40;;;;;;;;;;5122128;27;24417;-55
2022/01/04 07:10:21;;;;;;;5.90;5.28;;;;;;;;;;5119034;27;24412;-55
2022/01/04 07:12:46;;;;;;;5.55;5.05;;;;;;;;;;5123597;27;24991;-55
2022/01/04 07:15:11;;;;;;;7.10;6.40;;;;;;;;;;5124817;27;24408;-55
2022/01/04 07:17:41;;;;;;;6.50;5.90;;;;;;;;;;5122900;27;24558;-56
2022/01/04 07:20:07;;;;;;;6.82;6.22;;;;;;;;;;5119211;27;24554;-55
2022/01/04 07:22:32;;;;;;;9.70;6.53;;;;;;;;;;5119419;27;24540;-53
2022/01/04 07:24:57;;;;;;;6.35;5.78;;;;;;;;;;5124680;27;24381;-55
2022/01/04 07:27:22;;;;;;;7.23;6.50;;;;;;;;;;5124790;27;24402;-55
2022/01/04 07:29:47;;;;;;;7.00;6.30;;;;;;;;;;5119180;27;25021;-54
2022/01/04 07:32:12;;;;;;;6.20;5.60;;;;;;;;;;5118968;27;24413;-55
2022/01/04 07:34:37;;;;;;;5.50;5.00;;;;;;;;;;5120615;27;24438;-55
2022/01/04 07:37:03;;;;;;;5.70;4.90;;;;;;;;;;5116507;27;25030;-55
2022/01/04 07:39:28;;;;;;;6.23;5.60;;;;;;;;;;5117319;27;24409;-55
2022/01/04 07:41:55;;;;;;;6.20;5.38;;;;;;;;;;5120601;27;24432;-55
2022/01/04 07:44:20;;;;;;;6.40;5.78;;;;;;;;;;5116511;27;25178;-55
2022/01/04 07:46:45;;;;;;;5.93;5.43;;;;;;;;;;5115021;27;24607;-55
2022/01/04 07:49:10;;;;;;;5.83;5.33;;;;;;;;;;5114132;27;24421;-55
2022/01/04 07:51:35;;;;;;;6.00;5.40;;;;;;;;;;5121262;27;24409;-54
2022/01/04 07:54:00;;;;;;;6.40;5.80;;;;;;;;;;5114329;27;24509;-55
2022/01/04 07:56:26;;;;;;;5.97;5.47;;;;;;;;;;5116769;27;24517;-55
2022/01/04 07:58:52;;;;;;;6.35;5.75;;;;;;;;;;5116401;27;24417;-55
2022/01/04 08:01:17;;;;;;;5.53;5.03;;;;;;;;;;5115169;27;24544;-55
2022/01/04 08:03:42;;;;;;;6.07;5.47;;;;;;;;;;5118762;27;24840;-54
2022/01/04 08:06:07;;;;;;;8.67;6.97;;;;;;;;;;5115969;27;24406;-54
2022/01/04 08:08:32;;;;;;;6.32;5.72;;;;;;;;;;5118419;27;25003;-54
2022/01/04 08:10:57;;;;;;;6.40;5.80;;;;;;;;;;5115867;27;24420;-54
2022/01/04 08:13:27;;;;;;;5.72;5.22;;;;;;;;;;5113130;27;24473;-55
2022/01/04 08:15:52;;;;;;;5.38;4.88;;;;;;;;;;5116855;27;24466;-58
2022/01/04 08:18:17;;;;;;;5.57;5.07;;;;;;;;;;5117597;27;24401;-55
2022/01/04 08:20:42;;;;;;;5.18;4.72;;;;;;;;;;5116751;27;25392;-56
2022/01/04 08:23:07;;;;;;;5.97;5.23;;;;;;;;;;5117374;27;24405;-56
2022/01/04 08:25:33;;;;;;;5.50;5.00;;;;;;;;;;5119448;27;24423;-56
2022/01/04 08:27:58;;;;;;;5.50;5.00;;;;;;;;;;5118981;27;24986;-55
2022/01/04 08:30:23;;;;;;;5.50;5.00;;;;;;;;;;5114301;27;24517;-56
2022/01/04 08:32:50;;;;;;;5.43;4.93;;;;;;;;;;5114627;27;24524;-55
2022/01/04 08:35:16;;;;;;;6.78;5.90;;;;;;;;;;5117500;27;24832;-54
2022/01/04 08:37:41;;;;;;;5.40;4.90;;;;;;;;;;5118536;27;24436;-56
2022/01/04 08:40:07;;;;;;;6.20;5.60;;;;;;;;;;5096172;28;25006;-57
2022/01/04 08:42:33;;;;;;;5.30;4.80;;;;;;;;;;5116816;28;24420;-54
2022/01/04 08:44:58;;;;;;;5.20;4.80;;;;;;;;;;5120214;28;24423;-53
2022/01/04 08:47:24;;;;;;;5.80;5.20;;;;;;;;;;5106228;28;24500;-54
2022/01/04 08:49:49;;;;;;;5.90;5.30;;;;;;;;;;5109769;28;24420;-56
2022/01/04 08:52:14;;;;;;;5.30;4.80;;;;;;;;;;5112829;27;24413;-54
2022/01/04 08:54:39;;;;;;;5.07;4.60;;;;;;;;;;5120971;27;24504;-54
2022/01/04 08:57:05;;;;;;;5.60;5.00;;;;;;;;;;5121569;27;24461;-54
2022/01/04 08:59:32;;;;;;;5.28;4.80;;;;;;;;;;5101020;27;24405;-54
2022/01/04 09:01:57;;;;;;;5.82;5.32;;;;;;;;;;5114525;27;24777;-54
2022/01/04 09:04:22;;;;;;;5.20;4.80;;;;;;;;;;5120377;27;25053;-54
2022/01/04 09:06:48;;;;;;;5.30;4.80;;;;;;;;;;5121872;27;24932;-55
2022/01/04 09:09:14;;;;;;;5.50;5.00;;;;;;;;;;5122841;27;24415;-54
2022/01/04 09:11:39;;;;;;;6.47;5.85;;;;;;;;;;5122699;27;25014;-55
2022/01/04 09:19:19;;;;;;;5.00;4.60;;;;;;;;;;5102374;28;24424;-55
2022/01/04 09:21:45;;;;;;;5.50;5.00;;;;;;;;;;5116494;27;24409;-55
2022/01/04 09:24:10;;;;;;;5.57;5.07;;;;;;;;;;5122931;27;24886;-55
2022/01/04 09:26:35;;;;;;;5.20;4.70;;;;;;;;;;5122191;27;24739;-55
2022/01/04 09:29:01;;;;;;;4.80;4.40;;;;;;;;;;5118326;27;24478;-56
2022/01/04 09:31:26;;;;;;;6.17;5.40;;;;;;;;;;5111168;27;24565;-55
2022/01/04 09:33:52;;;;;;;5.43;4.93;;;;;;;;;;5107149;27;24504;-56
2022/01/04 09:36:18;;;;;;;5.13;4.72;;;;;;;;;;5112559;27;25080;-55
2022/01/04 09:38:43;;;;;;;5.60;5.10;;;;;;;;;;5111887;27;24651;-56
2022/01/04 09:41:08;;;;;;;5.50;4.80;;;;;;;;;;5120067;27;24424;-55
2022/01/04 09:43:34;;;;;;;6.17;5.57;;;;;;;;;;5116637;27;24423;-56
2022/01/04 09:46:00;;;;;;;5.23;4.73;;;;;;;;;;5108315;27;24471;-55
2022/01/04 09:48:25;;;;;;;5.22;4.72;;;;;;;;;;5116770;27;24413;-55
2022/01/04 09:50:50;;;;;;;5.47;4.97;;;;;;;;;;5123592;27;24424;-55
2022/01/04 09:53:19;;;;;;;5.63;5.10;;;;;;;;;;5113162;27;24509;-55
2022/01/04 09:55:46;;;;;;;5.40;4.90;;;;;;;;;;5117539;27;24432;-55
2022/01/04 09:58:11;;;;;;;5.28;4.78;;;;;;;;;;5118938;27;24458;-55
2022/01/04 10:00:37;;;;;;;5.50;5.00;;;;;;;;;;5122873;27;24413;-55
2022/01/04 10:03:15;;;;;;;5.63;5.13;;;;;;;;;;5121065;27;24516;-55
2022/01/04 10:05:41;;;;;;;5.30;4.80;;;;;;;;;;5109880;27;24948;-55
2022/01/04 10:08:07;;;;;;;5.40;4.90;;;;;;;;;;5114192;27;24996;-56
2022/01/04 10:10:33;;;;;;;5.35;4.85;;;;;;;;;;5118879;27;24473;-55
2022/01/04 10:13:00;;;;;;;6.50;5.90;;;;;;;;;;5117775;27;24989;-56
2022/01/04 10:15:32;;;;;;;5.82;5.32;;;;;;;;;;5118228;27;24420;-56
2022/01/04 10:18:00;;;;;;;7.18;6.15;;;;;;;;;;5116560;27;24437;-56
2022/01/04 10:20:25;;;;;;;5.50;5.00;;;;;;;;;;5120790;27;24412;-56
2022/01/04 10:22:51;;;;;;;5.63;5.13;;;;;;;;;;5103652;27;24433;-55
2022/01/04 10:25:19;;;;;;;5.57;5.07;;;;;;;;;;5111867;27;24470;-56
2022/01/04 10:27:46;;;;;;;5.93;5.32;;;;;;;;;;5103773;27;25176;-56
2022/01/04 10:30:12;;;;;;;5.75;5.25;;;;;;;;;;5121765;27;25028;-56
2022/01/04 10:32:44;;;;;;;4.90;4.50;;;;;;;;;;5122486;27;24425;-56
2022/01/04 10:35:10;;;;;;;4.63;4.22;;;;;;;;;;5114193;27;24783;-55
2022/01/04 10:37:37;;;;;;;4.70;4.30;;;;;;;;;;5119620;27;24439;-55
2022/01/04 10:40:07;;;;;;;5.50;5.00;;;;;;;;;;5122922;27;24420;-57
2022/01/04 10:42:32;;;;;;;4.93;4.43;;;;;;;;;;5124270;27;25003;-55
2022/01/04 10:44:57;;;;;;;5.60;5.10;;;;;;;;;;5121556;27;24969;-55
2022/01/04 10:47:27;;;;;;;5.23;4.73;;;;;;;;;;5118394;27;24433;-56
2022/01/04 10:49:52;;;;;;;5.15;4.75;;;;;;;;;;5113899;27;24469;-56
2022/01/04 10:52:22;;;;;;;5.13;4.68;;;;;;;;;;5123310;27;24473;-56
2022/01/04 10:55:07;;;;;;;5.18;4.70;;;;;;;;;;5116802;27;24516;-56
2022/01/04 10:57:34;;;;;;;5.78;5.28;;;;;;;;;;5119374;27;24450;-55
2022/01/04 11:00:12;;;;;;;5.55;5.05;;;;;;;;;;5121665;27;24484;-56
2022/01/04 11:02:37;;;;;;;5.47;5.00;;;;;;;;;;5120582;27;24455;-56
2022/01/04 11:05:12;;;;;;;5.00;4.50;;;;;;;;;;5121329;27;24736;-56
2022/01/04 11:07:55;;;;;;;5.07;4.68;;;;;;;;;;5118124;27;24423;-55
2022/01/04 11:10:20;;;;;;;5.20;4.70;;;;;;;;;;5117462;27;24970;-55
2022/01/04 11:12:45;;;;;;;5.03;4.63;;;;;;;;;;5112182;27;24519;-56
2022/01/04 11:15:11;;;;;;;4.90;4.50;;;;;;;;;;5110209;27;24517;-56
2022/01/04 11:17:36;;;;;;;5.20;4.70;;;;;;;;;;5112005;27;24487;-55
2022/01/04 11:20:01;;;;;;;5.13;4.72;;;;;;;;;;5118021;27;24947;-56
2022/01/04 11:22:26;;;;;;;5.57;5.00;;;;;;;;;;5119669;27;24742;-56
2022/01/04 11:24:51;;;;;;;5.65;4.57;;;;;;;;;;5111280;27;24479;-56
2022/01/04 11:27:17;;;;;;;5.45;4.95;;;;;;;;;;5116792;27;24455;-56
2022/01/04 11:29:45;;;;;;;6.13;5.53;;;;;;;;;;5120014;27;24429;-55
2022/01/04 11:32:14;;;;;;;5.40;4.90;;;;;;;;;;5122832;27;25004;-55
2022/01/04 11:34:58;;;;;;;5.60;5.10;;;;;;;;;;5119581;27;24508;-55
2022/01/04 11:37:25;;;;;;;5.28;4.80;;;;;;;;;;5112872;27;24485;-55
2022/01/04 11:39:52;;;;;;;5.28;4.80;;;;;;;;;;5116738;27;25042;-56
2022/01/04 11:42:38;;;;;;;5.60;5.10;;;;;;;;;;5117269;27;24478;-56
2022/01/04 11:45:08;;;;;;;4.63;4.22;;;;;;;;;;5105804;27;24431;-56
2022/01/04 11:47:35;;;;;;;5.60;5.20;;;;;;;;;;5116257;27;24962;-56
2022/01/04 11:50:26;;;;;;;5.80;5.30;;;;;;;;;;5122299;27;24412;-55
2022/01/04 11:52:55;;;;;;;6.07;5.57;;;;;;;;;;5111347;27;24525;-56
2022/01/04 11:55:30;;;;;;;6.30;5.80;;;;;;;;;;5117380;27;24462;-56
2022/01/04 11:57:56;;;;;;;6.57;6.00;;;;;;;;;;5112419;27;24895;-56
2022/01/04 12:00:24;;;;;;;5.70;5.20;;;;;;;;;;5122355;27;24420;-56
2022/01/04 12:03:04;;;;;;;6.47;5.97;;;;;;;;;;5108210;27;24984;-55
2022/01/04 12:05:29;;;;;;;6.50;6.00;;;;;;;;;;5099136;28;24405;-55
2022/01/04 12:07:57;;;;;;;7.63;6.93;;;;;;;;;;5101646;28;24400;-55
2022/01/04 12:10:22;;;;;;;7.20;6.60;;;;;;;;;;5120878;27;25013;-55
2022/01/04 12:12:58;;;;;;;7.45;6.85;;;;;;;;;;5121097;27;24527;-56
2022/01/04 12:15:32;;;;;;;7.45;6.75;;;;;;;;;;5122431;27;24429;-55
2022/01/04 12:17:57;;;;;;;8.20;7.40;;;;;;;;;;5121483;27;24421;-55
2022/01/04 12:20:46;;;;;;;7.43;6.73;;;;;;;;;;5120906;27;24424;-55
2022/01/04 12:23:26;;;;;;;9.02;8.20;;;;;;;;;;5122932;27;24409;-55
2022/01/04 12:26:11;;;;;;;7.45;6.75;;;;;;;;;;5120645;27;24566;-55
2022/01/04 12:28:37;;;;;;;7.05;6.45;;;;;;;;;;5116809;27;24409;-53
2022/01/04 12:31:20;;;;;;;7.93;7.22;;;;;;;;;;5117822;27;24417;-54
2022/01/04 12:33:45;;;;;;;6.72;6.13;;;;;;;;;;5109473;27;24418;-54
2022/01/04 12:36:11;;;;;;;6.43;5.93;;;;;;;;;;5114281;28;24489;-53
2022/01/04 12:38:38;;;;;;;5.85;5.35;;;;;;;;;;5112067;27;24456;-55
2022/01/04 12:41:06;;;;;;;5.70;5.20;;;;;;;;;;5106130;28;24421;-56
2022/01/04 12:43:32;;;;;;;4.97;4.57;;;;;;;;;;5114717;28;25036;-56
2022/01/04 12:45:58;;;;;;;4.00;3.70;;;;;;;;;;5107286;28;24421;-56
2022/01/04 12:48:45;;;;;;;3.40;3.10;;;;;;;;;;5115497;28;24951;-56
2022/01/04 12:51:26;;;;;;;2.70;2.50;;;;;;;;;;5119248;28;24973;-55
2022/01/04 12:53:51;;;;;;;3.70;2.45;;;;;;;;;;5120293;28;25333;-56
2022/01/04 12:56:16;;;;;;;2.17;2.00;;;;;;;;;;5117584;28;24435;-56
2022/01/04 12:58:42;;;;;;;1.80;1.70;;;;;;;;;;5115555;28;24508;-56
2022/01/04 13:01:07;;;;;;;2.10;1.80;;;;;;;;;;5119556;28;24405;-55
2022/01/04 13:03:32;;;;;;;1.40;1.30;;;;;;;;;;5116819;28;24428;-56
2022/01/04 13:05:59;;;;;;;1.60;1.50;;;;;;;;;;5118096;28;24500;-56
2022/01/04 13:08:25;;;;;;;2.50;1.60;;;;;;;;;;5100104;28;24509;-56
2022/01/04 13:11:00;;;;;;;1.80;1.70;;;;;;;;;;5112645;28;24527;-56
2022/01/04 13:13:26;;;;;;;1.60;1.50;;;;;;;;;;5113108;28;24435;-55
2022/01/04 13:15:51;;;;;;;1.92;1.83;;;;;;;;;;5116766;28;24413;-55
2022/01/04 13:18:25;;;;;;;2.10;1.90;;;;;;;;;;5106049;28;24416;-55
2022/01/04 13:20:50;;;;;;;1.90;1.70;;;;;;;;;;5098349;27;25166;-55
2022/01/04 13:23:18;;;;;;;2.10;1.90;;;;;;;;;;5111832;28;25009;-55
2022/01/04 13:25:43;;;;;;;2.10;1.90;;;;;;;;;;5107740;27;24421;-56
2022/01/04 13:28:08;;;;;;;2.20;2.10;;;;;;;;;;5110622;28;24432;-55
2022/01/04 13:30:40;;;;;;;2.30;1.90;;;;;;;;;;5112736;28;24771;-55
2022/01/04 13:33:06;;;;;;;2.10;1.90;;;;;;;;;;5114495;28;24840;-55
2022/01/04 13:35:33;;;;;;;2.50;2.17;;;;;;;;;;5112700;28;24494;-56
2022/01/04 13:38:20;;;;;;;2.70;2.50;;;;;;;;;;5115483;28;24557;-55
2022/01/04 13:40:47;;;;;;;3.20;2.90;;;;;;;;;;5106883;27;24401;-55
2022/01/04 13:43:25;;;;;;;3.05;2.85;;;;;;;;;;5124676;27;24409;-55
2022/01/04 13:45:52;;;;;;;3.00;2.70;;;;;;;;;;5124695;27;25254;-55
2022/01/04 13:48:31;;;;;;;2.70;2.50;;;;;;;;;;5105512;27;24421;-56
2022/01/04 13:51:26;;;;;;;2.38;2.28;;;;;;;;;;5118263;27;25207;-56
2022/01/04 13:53:57;;;;;;;2.50;2.30;;;;;;;;;;5094271;27;24422;-55
2022/01/04 13:56:24;;;;;;;3.40;3.10;;;;;;;;;;5126641;27;24417;-55
2022/01/04 13:58:57;;;;;;;3.97;2.88;;;;;;;;;;5126804;27;24902;-55
2022/01/04 14:01:29;;;;;;;2.80;2.60;;;;;;;;;;5122694;27;24472;-56
2022/01/04 14:04:16;;;;;;;4.10;3.80;;;;;;;;;;5120010;27;24417;-55
2022/01/04 14:06:44;;;;;;;3.88;3.58;;;;;;;;;;5122897;27;24442;-56
2022/01/04 14:09:10;;;;;;;3.03;2.83;;;;;;;;;;5120977;27;24448;-55
2022/01/04 14:11:37;;;;;;;3.65;3.33;;;;;;;;;;5108169;27;25137;-55
2022/01/04 14:14:21;;;;;;;3.75;3.45;;;;;;;;;;5102345;28;24787;-56
2022/01/04 14:16:48;;;;;;;3.75;3.45;;;;;;;;;;5117071;27;24429;-56
2022/01/04 14:19:13;;;;;;;2.60;2.40;;;;;;;;;;5106159;28;24416;-56
2022/01/04 14:21:39;;;;;;;2.67;2.47;;;;;;;;;;5105296;28;24604;-56
2022/01/04 14:24:25;;;;;;;2.77;2.57;;;;;;;;;;5115739;27;24460;-56
2022/01/04 14:26:50;;;;;;;2.70;2.50;;;;;;;;;;5107338;27;24410;-56
2022/01/04 14:29:28;;;;;;;2.90;2.70;;;;;;;;;;5110790;27;24426;-56
2022/01/04 14:31:57;;;;;;;2.80;2.60;;;;;;;;;;5117963;27;24418;-57
2022/01/04 14:34:22;;;;;;;2.80;2.60;;;;;;;;;;5114258;27;24523;-56
2022/01/04 14:36:47;;;;;;;3.00;2.80;;;;;;;;;;5109280;27;24460;-56
2022/01/04 14:39:12;;;;;;;3.45;3.15;;;;;;;;;;5117513;27;24466;-56
2022/01/04 14:41:37;;;;;;;2.75;2.55;;;;;;;;;;5121509;27;24421;-55
2022/01/04 14:44:03;;;;;;;2.33;2.20;;;;;;;;;;5118252;27;24437;-55
2022/01/04 14:46:28;;;;;;;2.53;2.33;;;;;;;;;;5114411;27;24416;-56
2022/01/04 14:48:53;;;;;;;2.30;2.15;;;;;;;;;;5118281;27;24817;-55
2022/01/04 14:51:18;;;;;;;1.90;1.80;;;;;;;;;;5119960;27;24515;-56
2022/01/04 14:53:43;;;;;;;1.70;1.60;;;;;;;;;;5121037;27;24420;-56
2022/01/04 14:56:08;;;;;;;1.60;1.50;;;;;;;;;;5117798;27;24975;-56